KLHM/LHM METAR and TAF weather

Enter ICAO airport designator
Station Type Date Time Source
KLHM METAR 2020/04/04 11:55 UTC NOAA

KLHM 041155Z AUTO 13008KT 10SM CLR 08/04 A2988 RMK AO1


Station Type Date Time Source
KLHM Decoded METAR 2020/04/04 11:55 UTC NOAA

Station name not available
Apr 04, 2020 - 07:55 AM EDT / 2020.04.04 1155 UTC
Wind: from the SE (130 degrees) at 9 MPH (8 KT):0
Visibility: 10 mile(s):0
Sky conditions: clear
Temperature: 46 F (8 C)
Dew Point: 39 F (4 C)
Relative Humidity: 75%
Pressure (altimeter): 29.88 in. Hg (1011 hPa)
ob: KLHM 041155Z AUTO 13008KT 10SM CLR 08/04 A2988 RMK AO1
cycle: 12

Station Type Date Time Source
KLHM TAF UTC NOAA

Error!

Example: see airport list